Time;durP1;ratioP1;P1;durP2;ratioP2;P2;SDS_P1;SDS_P2;PMS_P1;PMS_P2;Temp;Humidity;BMP_temperature;BMP_pressure;BME280_temperature;BME280_humidity;BME280_pressure;Samples;Min_cycle;Max_cycle;Signal;HPM_P1;HPM_P2
2021/05/06 00:07:11;;;;;;;3.35;1.38;;;;;;;6.36;66.96;96424.78;5058350;28;20032;-65
2021/05/06 00:29:40;;;;;;;4.35;1.63;;;;;;;6.18;67.41;96419.63;5063915;28;20044;-65
2021/05/06 00:33:55;;;;;;;5.00;1.83;;;;;;;6.56;65.22;96407.47;5060156;28;20036;-65
2021/05/06 00:36:20;;;;;;;5.13;1.40;;;;;;;6.62;64.73;96410.72;5057249;28;20155;-65
2021/05/06 00:38:52;;;;;;;2.25;1.20;;;;;;;6.61;64.31;96407.22;5073624;28;20060;-65
2021/05/06 01:03:01;;;;;;;5.88;1.70;;;;;;;6.83;63.05;96391.47;5041698;28;20059;-62
2021/05/06 01:05:42;;;;;;;4.35;1.40;;;;;;;6.84;63.29;96390.31;5054891;28;20040;-63
2021/05/06 01:08:26;;;;;;;5.13;1.30;;;;;;;6.81;62.34;96382.84;5055882;28;20487;-64
2021/05/06 01:11:55;;;;;;;5.07;1.27;;;;;;;6.92;62.28;96383.13;5062794;28;20039;-62
2021/05/06 01:13:47;;;;;;;3.58;1.52;;;;;;;6.94;62.16;96378.91;5066879;28;20040;-64
2021/05/06 01:16:13;;;;;;;5.53;1.80;;;;;;;7.13;60.91;96375.50;5076892;28;20047;-62
2021/05/06 01:18:38;;;;;;;5.13;1.77;;;;;;;7.11;61.54;96377.75;5048170;28;20450;-64
2021/05/06 01:21:05;;;;;;;7.10;1.70;;;;;;;7.02;62.10;96377.94;5036853;28;589577;-61
2021/05/06 01:23:34;;;;;;;5.78;1.90;;;;;;;7.05;62.16;96374.50;5062781;28;20522;-63
2021/05/06 01:26:09;;;;;;;5.20;1.50;;;;;;;7.05;62.77;96376.44;5060958;28;20483;-64
2021/05/06 01:28:38;;;;;;;12.48;3.38;;;;;;;7.18;63.18;96371.69;5058932;28;20529;-64
2021/05/06 01:31:11;;;;;;;13.25;2.90;;;;;;;7.16;63.31;96372.03;5057738;28;20071;-61
2021/05/06 01:33:45;;;;;;;6.18;1.70;;;;;;;7.11;63.22;96364.13;5061073;28;20630;-64
2021/05/06 01:36:47;;;;;;;2.85;1.52;;;;;;;6.92;64.17;96364.06;5060584;28;20494;-62
2021/05/06 01:39:50;;;;;;;5.05;1.50;;;;;;;6.82;64.52;96355.25;5060469;28;20055;-61
2021/05/06 02:00:03;;;;;;;5.75;1.20;;;;;;;6.99;65.82;96347.91;5062057;28;20048;-62
2021/05/06 02:02:29;;;;;;;3.42;1.50;;;;;;;6.92;66.63;96351.25;5061469;28;20055;-63
2021/05/06 02:04:54;;;;;;;4.47;1.38;;;;;;;6.90;66.92;96350.81;5070533;28;20039;-63
2021/05/06 02:07:20;;;;;;;3.53;1.20;;;;;;;6.87;67.07;96343.31;5075891;28;20518;-62
2021/05/06 02:09:47;;;;;;;5.43;1.48;;;;;;;6.94;66.70;96348.16;5080683;28;20047;-63
2021/05/06 02:12:14;;;;;;;7.28;2.20;;;;;;;6.89;66.74;96352.72;5043021;28;20032;-63
2021/05/06 02:14:45;;;;;;;3.58;1.60;;;;;;;6.87;66.54;96352.28;5059938;28;20127;-65
2021/05/06 02:17:10;;;;;;;4.03;1.50;;;;;;;7.03;65.31;96351.50;5054391;28;20094;-63
2021/05/06 02:19:38;;;;;;;4.50;1.50;;;;;;;7.01;65.04;96342.91;5059549;28;20512;-62
2021/05/06 02:22:07;;;;;;;7.10;1.50;;;;;;;6.89;65.75;96351.94;5052107;28;20502;-61
2021/05/06 02:24:33;;;;;;;2.55;1.30;;;;;;;6.97;65.70;96345.53;5057124;28;20106;-62
2021/05/06 02:26:58;;;;;;;4.65;1.48;;;;;;;7.11;64.63;96355.19;5041159;28;20501;-65
2021/05/06 02:29:24;;;;;;;3.40;1.40;;;;;;;6.97;64.77;96345.53;5054009;28;20470;-62
2021/05/06 02:31:49;;;;;;;1.60;1.20;;;;;;;6.95;65.32;96347.81;5059917;28;20040;-63
2021/05/06 02:34:15;;;;;;;4.65;1.70;;;;;;;6.92;65.31;96334.91;5054202;28;20095;-65
2021/05/06 02:36:40;;;;;;;8.00;1.88;;;;;;;7.05;64.86;96332.88;5059810;28;20032;-62
2021/05/06 02:39:06;;;;;;;2.67;1.48;;;;;;;7.06;63.65;96323.56;5049685;28;20051;-63
2021/05/06 02:41:32;;;;;;;4.55;1.50;;;;;;;7.13;63.43;96329.19;5058808;28;20049;-64
2021/05/06 02:43:58;;;;;;;4.75;1.55;;;;;;;7.13;63.76;96320.22;5059932;28;20518;-63
2021/05/06 02:46:27;;;;;;;5.40;1.33;;;;;;;7.10;63.91;96320.94;5076264;28;20051;-63
2021/05/06 02:48:52;;;;;;;7.93;1.73;;;;;;;7.13;63.04;96318.31;5061521;28;20318;-63
2021/05/06 02:51:18;;;;;;;4.40;1.35;;;;;;;7.08;63.53;96318.56;5039342;28;20080;-64
2021/05/06 02:53:50;;;;;;;5.65;1.45;;;;;;;7.11;63.71;96314.34;5056284;28;20060;-63
2021/05/06 02:56:23;;;;;;;2.08;1.20;;;;;;;7.10;62.91;96310.03;5054602;28;20044;-63
2021/05/06 03:04:16;;;;;;;4.93;1.25;;;;;;;6.95;63.96;96306.16;5055120;28;20045;-63
2021/05/06 03:06:52;;;;;;;7.53;1.50;;;;;;;6.94;64.46;96299.94;5060851;28;20751;-64
2021/05/06 03:14:53;;;;;;;2.78;1.92;;;;;;;6.99;64.16;96293.44;5059033;28;20438;-63
2021/05/06 03:22:54;;;;;;;4.97;1.50;;;;;;;6.98;64.49;96298.09;5062695;28;21404;-63
2021/05/06 03:25:21;;;;;;;4.32;1.40;;;;;;;6.93;65.41;96294.84;5067675;28;20048;-64
2021/05/06 03:42:04;;;;;;;3.47;1.90;;;;;;;6.50;69.50;96292.66;4995513;28;20042;-64
2021/05/06 04:27:55;;;;;;;3.47;1.52;;;;;;;7.15;66.20;96255.28;5057670;28;20048;-64
2021/05/06 04:30:40;;;;;;;7.13;1.50;;;;;;;7.21;66.22;96253.88;5051686;28;20040;-61
2021/05/06 04:35:48;;;;;;;9.07;2.53;;;;;;;7.55;62.80;96259.66;5061116;28;20040;-65
2021/05/06 04:38:16;;;;;;;6.10;2.08;;;;;;;7.51;64.44;96253.31;5056818;28;20045;-64
2021/05/06 04:43:50;;;;;;;7.53;2.80;;;;;;;7.65;62.30;96248.16;5055187;28;20079;-64
2021/05/06 04:53:56;;;;;;;9.23;2.10;;;;;;;7.64;63.53;96252.06;5060973;28;20074;-65
2021/05/06 05:06:51;;;;;;;4.97;1.60;;;;;;;7.76;62.71;96256.56;5061717;28;20102;-64
2021/05/06 05:17:36;;;;;;;9.88;3.30;;;;;;;8.28;59.53;96244.31;5019090;28;20047;-63
2021/05/06 05:18:07;;;;;;;19.15;4.22;;;;;;;8.35;58.84;96244.44;5060724;28;20044;-62
2021/05/06 05:25:47;;;;;;;11.60;3.45;;;;;;;8.51;58.83;96236.16;5062314;28;20041;-64
2021/05/06 05:28:13;;;;;;;11.65;3.85;;;;;;;8.65;57.57;96245.75;5055581;28;20032;-62
2021/05/06 05:30:39;;;;;;;35.13;6.57;;;;;;;8.70;57.34;96238.03;5060430;28;20052;-64
2021/05/06 05:33:18;;;;;;;22.13;4.88;;;;;;;8.82;57.42;96234.31;5056021;28;20044;-64
2021/05/06 05:38:32;;;;;;;12.63;3.03;;;;;;;9.14;55.37;96237.53;5055570;28;20541;-64
2021/05/06 05:56:50;;;;;;;8.02;2.90;;;;;;;9.56;53.07;96192.00;5063348;28;20471;-63
2021/05/06 05:59:16;;;;;;;13.52;2.60;;;;;;;9.64;54.12;96192.91;5063678;28;20407;-63
2021/05/06 06:01:41;;;;;;;14.43;3.80;;;;;;;9.66;53.71;96196.03;5061763;28;20040;-63
2021/05/06 06:04:07;;;;;;;7.05;1.40;;;;;;;9.63;53.22;96202.25;5055657;28;20052;-64
2021/05/06 06:06:32;;;;;;;7.63;2.10;;;;;;;9.67;53.77;96198.41;5060691;28;20411;-63
2021/05/06 06:08:57;;;;;;;4.45;1.80;;;;;;;9.66;55.59;96206.97;5070080;22;20065;-58
2021/05/06 06:11:23;;;;;;;6.05;2.00;;;;;;;9.89;53.63;96202.16;4996435;28;20034;-59
2021/05/06 06:13:50;;;;;;;12.00;2.10;;;;;;;10.05;53.31;96206.63;5018875;28;20427;-61
2021/05/06 06:16:23;;;;;;;5.72;2.00;;;;;;;10.22;52.52;96203.28;5014184;28;20041;-62
2021/05/06 06:18:53;;;;;;;9.10;2.30;;;;;;;10.23;52.04;96199.38;5005668;28;20041;-57
2021/05/06 06:21:23;;;;;;;5.82;2.13;;;;;;;10.35;51.71;96205.78;5016881;28;20037;-58
2021/05/06 06:23:48;;;;;;;;;;;;;;;10.48;50.23;96204.34;5027673;28;20068;-60
2021/05/06 06:26:14;;;;;;;3.95;1.35;;;;;;;10.66;51.12;96207.19;5015917;28;19913;-62
2021/05/06 06:28:45;;;;;;;2.90;1.30;;;;;;;10.94;50.05;96201.16;5004403;28;20091;-59
2021/05/06 06:31:18;;;;;;;7.53;1.70;;;;;;;11.18;48.19;96193.47;5004443;28;20041;-60
2021/05/06 06:33:44;;;;;;;7.97;1.83;;;;;;;11.58;48.57;96184.28;5020448;28;20073;-59
2021/05/06 06:36:09;;;;;;;4.97;1.63;;;;;;;12.78;45.27;96172.34;5013653;28;20538;-63
2021/05/06 06:38:35;;;;;;;8.35;1.88;;;;;;;13.47;43.82;96156.50;5031320;28;20510;-61
2021/05/06 06:41:03;;;;;;;7.00;1.98;;;;;;;14.80;41.67;96156.50;5039952;28;20041;-59
2021/05/06 06:43:30;;;;;;;6.28;1.58;;;;;;;14.81;41.27;96157.28;5035845;28;20052;-64
2021/05/06 06:45:55;;;;;;;6.63;1.10;;;;;;;14.70;41.58;96165.66;5028942;28;20065;-60
2021/05/06 06:48:20;;;;;;;5.13;1.23;;;;;;;15.08;41.28;96155.44;5012521;28;20126;-61
2021/05/06 06:50:46;;;;;;;5.25;1.30;;;;;;;15.76;40.23;96148.41;5022045;28;20395;-60
2021/05/06 06:53:13;;;;;;;4.40;1.30;;;;;;;16.81;37.76;96137.34;5017070;28;20500;-62
2021/05/06 06:55:39;;;;;;;8.52;1.80;;;;;;;17.87;35.25;96132.22;5020928;28;20048;-62
2021/05/06 06:58:12;;;;;;;5.22;1.27;;;;;;;18.79;32.75;96129.72;5014333;28;20041;-66
2021/05/06 07:00:41;;;;;;;5.47;1.70;;;;;;;19.45;30.09;96133.16;5030861;28;20048;-63
2021/05/06 07:03:07;;;;;;;10.50;1.83;;;;;;;19.46;29.79;96123.59;5032020;28;20041;-63
2021/05/06 07:05:36;;;;;;;7.05;1.63;;;;;;;18.60;28.29;96118.28;5032136;28;20132;-58
2021/05/06 07:08:31;;;;;;;5.30;0.93;;;;;;;17.86;30.12;96116.81;5022426;28;20140;-58
2021/05/06 07:10:59;;;;;;;8.10;1.13;;;;;;;18.23;28.84;96116.78;5028061;28;20147;-60
2021/05/06 07:13:25;;;;;;;3.40;0.80;;;;;;;17.64;29.88;96115.66;5038888;28;20049;-62
2021/05/06 07:15:51;;;;;;;4.00;0.88;;;;;;;16.95;30.47;96110.69;5035756;28;20033;-61
2021/05/06 07:18:17;;;;;;;7.47;1.35;;;;;;;17.68;29.42;96100.56;5024483;28;20475;-61
2021/05/06 07:20:44;;;;;;;5.13;0.75;;;;;;;17.54;29.46;96101.63;5043108;28;20135;-59
2021/05/06 07:23:14;;;;;;;5.03;1.10;;;;;;;17.77;29.40;96109.06;5034373;28;20041;-62
2021/05/06 07:25:40;;;;;;;9.80;1.88;;;;;;;17.62;29.92;96101.47;5034015;28;20123;-58
2021/05/06 07:28:13;;;;;;;5.63;1.50;;;;;;;18.71;28.33;96093.06;5023986;28;20525;-58
2021/05/06 07:30:39;;;;;;;10.38;2.05;;;;;;;18.61;28.93;96092.09;5038814;28;20499;-58
2021/05/06 07:33:05;;;;;;;5.88;1.40;;;;;;;17.98;29.87;96086.88;5031605;28;20131;-64
2021/05/06 07:35:33;;;;;;;9.90;1.80;;;;;;;16.89;31.30;96093.78;5040186;28;20084;-63
2021/05/06 07:37:59;;;;;;;6.72;1.77;;;;;;;16.07;33.01;96092.34;5039923;28;20540;-61
2021/05/06 07:40:26;;;;;;;2.65;1.05;;;;;;;15.56;33.09;96095.78;5026519;28;20139;-59
2021/05/06 07:42:51;;;;;;;5.57;1.80;;;;;;;15.48;33.67;96094.31;5032926;28;20047;-58
2021/05/06 07:45:17;;;;;;;6.15;1.92;;;;;;;15.03;35.11;96095.22;5032568;28;20045;-58
2021/05/06 07:47:42;;;;;;;3.10;0.90;;;;;;;14.81;36.01;96088.38;5030185;28;20065;-61
2021/05/06 07:50:08;;;;;;;12.52;2.15;;;;;;;14.90;35.30;96085.91;5033658;28;20121;-59
2021/05/06 07:52:34;;;;;;;11.00;1.83;;;;;;;14.65;35.31;96088.91;5042581;28;20124;-57
2021/05/06 07:55:00;;;;;;;6.47;1.50;;;;;;;14.33;35.13;96071.47;5042933;28;20391;-59
2021/05/06 07:57:25;;;;;;;4.63;1.08;;;;;;;13.73;35.22;96070.69;5036843;28;20147;-59
2021/05/06 07:59:51;;;;;;;6.45;1.40;;;;;;;13.47;37.13;96068.47;5043321;28;20068;-62
2021/05/06 08:02:17;;;;;;;9.75;2.35;;;;;;;13.39;37.49;96076.75;5025411;28;20139;-60
2021/05/06 08:04:42;;;;;;;3.33;1.17;;;;;;;13.72;37.88;96077.41;5021239;28;20399;-59
2021/05/06 08:07:08;;;;;;;5.10;1.33;;;;;;;13.36;36.67;96076.78;4998021;28;20038;-59
2021/05/06 08:09:33;;;;;;;6.32;1.90;;;;;;;12.87;38.26;96067.50;5021861;28;20069;-60
2021/05/06 08:12:00;;;;;;;10.27;2.50;;;;;;;13.20;38.54;96063.50;5016993;28;20051;-61
2021/05/06 08:14:26;;;;;;;7.28;1.40;;;;;;;12.91;39.23;96054.53;5036959;28;20124;-60
2021/05/06 08:16:52;;;;;;;15.95;3.50;;;;;;;13.10;39.71;96061.56;5042559;28;20433;-60
2021/05/06 08:19:18;;;;;;;9.18;2.85;;;;;;;13.37;39.68;96059.88;5036583;28;20045;-62
2021/05/06 08:21:44;;;;;;;9.48;2.60;;;;;;;13.12;39.91;96056.44;5039956;28;20048;-55
2021/05/06 08:24:10;;;;;;;12.88;3.38;;;;;;;13.05;39.95;96067.47;5036805;28;20045;-58
2021/05/06 08:26:35;;;;;;;11.85;3.53;;;;;;;13.13;40.39;96058.03;5040625;28;20072;-61
2021/05/06 08:29:02;;;;;;;14.30;3.35;;;;;;;13.18;40.59;96050.13;5037950;28;20049;-60
2021/05/06 08:31:27;;;;;;;12.63;2.45;;;;;;;13.09;40.93;96046.22;5022893;28;20129;-60
2021/05/06 08:33:52;;;;;;;8.82;2.10;;;;;;;13.09;40.77;96054.47;5023422;28;20148;-60
2021/05/06 08:36:18;;;;;;;4.43;1.27;;;;;;;13.08;41.30;96063.94;5037261;28;20041;-63
2021/05/06 08:38:43;;;;;;;5.55;1.23;;;;;;;13.06;41.51;96069.03;5030966;28;20124;-61
2021/05/06 08:41:09;;;;;;;4.07;1.08;;;;;;;12.97;40.70;96069.47;5016768;28;20072;-62
2021/05/06 08:43:37;;;;;;;3.97;1.17;;;;;;;12.92;41.78;96067.13;5003413;28;20045;-61
2021/05/06 08:46:03;;;;;;;6.25;1.20;;;;;;;12.46;42.06;96071.53;5020344;28;20502;-65
2021/05/06 08:48:30;;;;;;;5.53;1.70;;;;;;;12.71;41.12;96074.25;5019901;28;20045;-61
2021/05/06 08:50:57;;;;;;;10.35;1.98;;;;;;;12.85;41.16;96078.91;5041726;28;20039;-61
2021/05/06 08:53:23;;;;;;;6.53;1.00;;;;;;;12.81;40.90;96078.91;5035793;28;20518;-60
2021/05/06 08:55:53;;;;;;;3.97;1.00;;;;;;;12.72;42.02;96077.75;5041409;28;20119;-61
2021/05/06 08:58:18;;;;;;;4.40;1.20;;;;;;;12.88;43.64;96085.59;5035992;28;20041;-63
2021/05/06 09:00:43;;;;;;;8.38;1.98;;;;;;;13.01;41.79;96078.47;5041385;28;20098;-59
2021/05/06 09:03:10;;;;;;;4.18;1.38;;;;;;;13.07;41.94;96076.09;5036487;28;20127;-62
2021/05/06 09:05:36;;;;;;;3.92;0.90;;;;;;;12.99;42.52;96089.09;5023170;28;20091;-62
2021/05/06 09:08:02;;;;;;;7.90;1.45;;;;;;;12.89;42.08;96093.44;5029640;28;20365;-62
2021/05/06 09:10:40;;;;;;;9.70;2.40;;;;;;;13.05;41.43;96092.19;5033431;28;20045;-62
2021/05/06 09:13:29;;;;;;;5.85;1.30;;;;;;;12.93;42.10;96096.94;5021525;28;20133;-61
2021/05/06 09:15:55;;;;;;;6.50;1.53;;;;;;;12.91;42.56;96102.06;5020828;28;20041;-59
2021/05/06 09:18:33;;;;;;;8.40;1.92;;;;;;;13.04;43.49;96104.41;5031255;28;20099;-60
2021/05/06 09:20:58;;;;;;;3.15;1.20;;;;;;;13.19;42.63;96106.69;5022813;28;20076;-60
2021/05/06 09:23:24;;;;;;;4.78;1.00;;;;;;;13.22;42.94;96101.56;5017536;28;20072;-59
2021/05/06 09:25:49;;;;;;;6.57;1.48;;;;;;;12.97;43.80;96100.47;5041063;28;20399;-61
2021/05/06 09:28:17;;;;;;;4.65;1.23;;;;;;;12.90;43.95;96105.22;5034787;28;20048;-57
2021/05/06 09:30:54;;;;;;;5.82;1.40;;;;;;;12.73;44.72;96104.84;5030705;28;20037;-59
2021/05/06 09:33:31;;;;;;;4.70;1.60;;;;;;;12.76;43.21;96106.78;5022265;28;20041;-61
2021/05/06 09:35:57;;;;;;;4.57;1.45;;;;;;;12.21;44.63;96110.75;5041048;28;20053;-59
2021/05/06 09:38:34;;;;;;;4.95;1.17;;;;;;;12.30;44.58;96110.38;5035331;28;20059;-58
2021/05/06 09:41:03;;;;;;;4.60;0.98;;;;;;;12.40;44.52;96093.09;5040774;28;20077;-63
2021/05/06 09:43:39;;;;;;;3.65;1.00;;;;;;;12.27;44.94;96099.38;5032518;28;20143;-56
2021/05/06 09:46:22;;;;;;;4.28;1.60;;;;;;;12.20;45.11;96095.44;5035440;28;20056;-62
2021/05/06 09:48:59;;;;;;;3.63;1.40;;;;;;;11.86;47.71;96101.25;5029328;28;20045;-58
2021/05/06 09:51:36;;;;;;;6.80;1.10;;;;;;;11.69;48.33;96098.50;5011722;28;20582;-60
2021/05/06 09:54:04;;;;;;;4.43;1.02;;;;;;;11.58;46.77;96090.25;5022081;28;20042;-64
2021/05/06 09:56:30;;;;;;;6.95;1.35;;;;;;;11.45;49.33;96100.78;5013007;28;20063;-58
2021/05/06 09:58:56;;;;;;;4.65;1.08;;;;;;;11.58;48.91;96109.47;5026651;28;20041;-59
2021/05/06 10:01:23;;;;;;;5.05;1.20;;;;;;;11.41;49.27;96100.75;5033139;28;20045;-60
2021/05/06 10:03:49;;;;;;;6.03;1.23;;;;;;;11.71;49.49;96102.44;5042700;28;20049;-60
2021/05/06 10:06:19;;;;;;;2.22;1.33;;;;;;;11.88;48.40;96100.09;5022531;28;20376;-61
2021/05/06 10:08:46;;;;;;;6.15;1.77;;;;;;;11.74;49.86;96112.63;5040904;28;20048;-65
2021/05/06 10:11:16;;;;;;;5.80;2.05;;;;;;;11.45;51.42;96103.50;5030759;28;20041;-56
2021/05/06 10:13:44;;;;;;;4.72;1.30;;;;;;;11.21;53.27;96114.00;5032728;28;20064;-56
2021/05/06 10:16:12;;;;;;;4.60;1.15;;;;;;;11.21;55.01;96118.72;5029836;28;20041;-62
2021/05/06 10:18:40;;;;;;;2.75;1.10;;;;;;;10.85;56.55;96122.03;5023648;28;20087;-59
2021/05/06 10:21:13;;;;;;;6.20;1.25;;;;;;;10.31;61.78;96124.41;5025207;28;20037;-59
2021/05/06 10:23:39;;;;;;;4.88;1.02;;;;;;;10.18;63.59;96119.59;5019463;28;20042;-60
2021/05/06 10:26:05;;;;;;;4.90;1.50;;;;;;;9.98;65.92;96124.50;5015167;28;20048;-65
2021/05/06 10:28:33;;;;;;;4.35;1.40;;;;;;;9.89;67.60;96128.31;5018500;28;20048;-57
2021/05/06 10:31:05;;;;;;;9.00;1.70;;;;;;;9.76;67.83;96121.53;5020533;28;20088;-60
2021/05/06 10:33:32;;;;;;;8.85;2.05;;;;;;;9.85;68.73;96121.22;5037605;28;20051;-60
2021/05/06 10:35:58;;;;;;;6.93;1.52;;;;;;;9.93;68.10;96115.44;5019330;28;20052;-58
2021/05/06 10:38:29;;;;;;;3.05;1.45;;;;;;;9.93;68.83;96117.41;5035501;28;20336;-62
2021/05/06 10:40:54;;;;;;;3.38;1.92;;;;;;;9.94;71.65;96106.09;5042758;28;20543;-55
2021/05/06 10:43:28;;;;;;;7.07;2.20;;;;;;;9.88;71.86;96113.03;5034039;28;20045;-56
2021/05/06 10:46:04;;;;;;;9.80;1.58;;;;;;;10.23;70.75;96117.28;5035419;28;20105;-59
2021/05/06 10:48:54;;;;;;;6.38;1.92;;;;;;;10.47;70.28;96113.19;5041830;28;20041;-62
2021/05/06 10:51:36;;;;;;;5.57;1.85;;;;;;;10.34;71.03;96106.44;5018669;28;20133;-61
2021/05/06 10:54:32;;;;;;;6.72;2.13;;;;;;;10.27;71.79;96100.88;5024205;28;20033;-62
2021/05/06 10:57:00;;;;;;;5.78;1.70;;;;;;;9.94;72.09;96102.56;5022889;28;20048;-59
2021/05/06 10:59:33;;;;;;;8.50;2.05;;;;;;;10.05;73.55;96092.50;5029723;28;20128;-61
2021/05/06 11:01:59;;;;;;;6.38;3.35;;;;;;;10.20;73.38;96078.94;5034142;28;20044;-58
2021/05/06 11:04:39;;;;;;;6.00;1.65;;;;;;;10.00;73.95;96081.91;5037487;28;20245;-62
2021/05/06 11:07:11;;;;;;;7.50;1.85;;;;;;;9.82;75.25;96073.53;5038924;28;20064;-66
2021/05/06 11:09:43;;;;;;;3.42;1.40;;;;;;;9.90;72.34;96074.38;5042217;28;20091;-59
2021/05/06 11:12:15;;;;;;;4.85;3.00;;;;;;;9.95;73.59;96069.34;5028139;28;20116;-62
2021/05/06 11:15:02;;;;;;;4.13;1.40;;;;;;;10.02;73.47;96063.16;5030116;28;20099;-61
2021/05/06 11:17:34;;;;;;;7.63;1.70;;;;;;;9.87;74.20;96072.41;5017987;28;20141;-58
2021/05/06 11:20:29;;;;;;;6.07;1.67;;;;;;;10.13;73.57;96068.72;5024348;28;20499;-58
2021/05/06 11:23:00;;;;;;;8.30;1.80;;;;;;;10.29;74.26;96066.50;5036755;28;20128;-59
2021/05/06 11:25:26;;;;;;;3.85;1.90;;;;;;;10.41;74.03;96057.22;5018748;28;20044;-61
2021/05/06 11:27:56;;;;;;;5.75;1.77;;;;;;;10.29;74.17;96052.03;5032836;28;20045;-61
2021/05/06 11:30:43;;;;;;;4.28;2.13;;;;;;;10.35;72.52;96050.53;5020167;28;20045;-61
2021/05/06 11:33:21;;;;;;;4.47;1.75;;;;;;;10.57;72.45;96032.28;5040410;28;20476;-60
2021/05/06 11:36:11;;;;;;;5.70;2.35;;;;;;;10.44;72.17;96022.81;5024741;28;20044;-62
2021/05/06 11:38:37;;;;;;;;;;;;;;;10.53;72.74;96023.25;5015590;28;20091;-62
2021/05/06 11:41:26;;;;;;;4.22;2.08;;;;;;;10.65;74.28;96016.69;5031101;28;19966;-65
2021/05/06 11:43:59;;;;;;;6.15;2.20;;;;;;;10.64;73.24;96017.84;5023891;28;20533;-61
2021/05/06 11:46:35;;;;;;;6.30;1.90;;;;;;;10.48;74.90;96018.94;5018659;28;21031;-59
2021/05/06 11:49:06;;;;;;;5.32;2.35;;;;;;;10.17;75.49;96014.78;5024052;28;20045;-57
2021/05/06 11:51:43;;;;;;;5.22;2.33;;;;;;;10.36;73.85;96011.03;5022621;28;20103;-64
2021/05/06 11:54:17;;;;;;;4.07;1.75;;;;;;;10.55;74.65;96012.69;5029272;28;20438;-57
2021/05/06 11:56:57;;;;;;;6.13;2.17;;;;;;;10.48;73.54;96008.00;5041824;28;20040;-58
2021/05/06 11:59:24;;;;;;;;;;;;;;;9.95;76.60;96006.44;5038830;28;20055;-58
2021/05/06 12:01:51;;;;;;;9.50;4.50;;;;;;;10.24;75.85;95998.41;5043784;28;19913;-63
2021/05/06 12:04:34;;;;;;;6.03;2.17;;;;;;;9.85;74.81;96004.41;5037857;28;20055;-62
2021/05/06 12:07:12;;;;;;;3.47;1.88;;;;;;;9.75;76.37;96008.63;5037894;28;20513;-58
2021/05/06 12:09:37;;;;;;;4.30;1.85;;;;;;;10.29;74.94;96005.50;5027259;28;20059;-62
2021/05/06 12:12:03;;;;;;;2.75;1.70;;;;;;;10.40;74.06;95997.38;5039279;28;20057;-65
2021/05/06 12:14:35;;;;;;;4.60;1.77;;;;;;;10.21;76.08;96010.16;5035725;28;20045;-62
2021/05/06 12:17:01;;;;;;;4.82;2.15;;;;;;;10.18;74.35;96002.69;5035268;28;20060;-59
2021/05/06 12:19:26;;;;;;;6.05;1.83;;;;;;;10.29;74.84;96002.75;5030165;28;20048;-60
2021/05/06 12:21:55;;;;;;;4.60;2.05;;;;;;;9.98;75.45;95988.50;5031958;28;20042;-62
2021/05/06 12:24:32;;;;;;;3.78;1.50;;;;;;;9.87;75.94;95993.09;5016694;28;20058;-62
2021/05/06 12:26:59;;;;;;;3.78;1.70;;;;;;;10.12;74.40;95991.31;5055035;28;20040;-63
2021/05/06 12:29:27;;;;;;;8.10;2.00;;;;;;;10.18;73.80;95980.81;5049213;28;20611;-64
2021/05/06 12:31:53;;;;;;;5.18;2.50;;;;;;;10.01;75.44;95976.78;5049219;28;20041;-62
2021/05/06 12:34:23;;;;;;;5.25;1.92;;;;;;;9.91;75.95;95975.53;5040799;28;20047;-59
2021/05/06 12:36:51;;;;;;;4.72;2.83;;;;;;;9.72;77.00;95960.16;5041439;28;20442;-57
2021/05/06 12:39:18;;;;;;;5.43;2.05;;;;;;;9.81;76.67;95962.56;5036128;28;20490;-56
2021/05/06 12:41:55;;;;;;;5.22;2.10;;;;;;;9.89;76.91;95966.94;5025785;28;20052;-58
2021/05/06 12:44:47;;;;;;;6.05;4.13;;;;;;;9.86;75.85;95964.94;5028862;28;20557;-59
2021/05/06 12:47:26;;;;;;;91.85;37.60;;;;;;;10.08;75.53;95954.16;5028381;28;20041;-62
2021/05/06 12:50:07;;;;;;;10.23;7.28;;;;;;;10.12;75.65;95946.75;5026770;28;20041;-59
2021/05/06 12:52:37;;;;;;;8.15;3.22;;;;;;;9.84;76.30;95950.09;5027736;28;20049;-59
2021/05/06 12:55:20;;;;;;;5.47;1.92;;;;;;;9.82;76.82;95960.63;5028296;28;20037;-62
2021/05/06 12:58:02;;;;;;;6.25;2.10;;;;;;;9.92;76.60;95957.16;5026850;28;20054;-62
2021/05/06 13:00:27;;;;;;;7.82;3.63;;;;;;;9.62;79.70;95957.34;5020565;28;20071;-60
2021/05/06 13:03:01;;;;;;;6.72;3.33;;;;;;;9.74;77.17;95948.81;5026755;28;20069;-59
2021/05/06 13:05:31;;;;;;;8.10;3.13;;;;;;;9.63;78.95;95950.69;5019401;28;20049;-59
2021/05/06 13:07:57;;;;;;;7.95;3.20;;;;;;;9.88;78.85;95950.91;5042291;28;20045;-59
2021/05/06 13:10:46;;;;;;;8.70;4.05;;;;;;;9.94;78.27;95933.75;5019291;28;20131;-59
2021/05/06 13:13:32;;;;;;;11.95;7.43;;;;;;;10.05;77.99;95925.59;5020962;28;20041;-63
2021/05/06 13:15:57;;;;;;;7.32;4.32;;;;;;;10.01;77.30;95915.81;5041219;28;20041;-61
2021/05/06 13:18:23;;;;;;;5.30;3.75;;;;;;;9.93;77.35;95918.50;5034519;28;20400;-61
2021/05/06 13:20:49;;;;;;;5.70;3.47;;;;;;;9.93;77.45;95914.97;5029968;28;20554;-60
2021/05/06 13:23:22;;;;;;;4.63;3.25;;;;;;;9.73;77.80;95909.78;5015125;28;20049;-59
2021/05/06 13:25:54;;;;;;;19.67;17.90;;;;;;;9.70;77.06;95898.81;5018421;28;20084;-60
2021/05/06 13:28:31;;;;;;;7.00;4.85;;;;;;;9.82;78.41;95901.25;5015772;28;20547;-61
2021/05/06 13:31:07;;;;;;;5.05;2.30;;;;;;;9.93;78.42;95902.09;5029227;28;20484;-60
2021/05/06 13:33:33;;;;;;;6.70;4.18;;;;;;;10.01;77.85;95888.44;5029646;28;20106;-62
2021/05/06 13:36:23;;;;;;;5.68;3.75;;;;;;;9.99;77.99;95877.88;5039702;28;20127;-61
2021/05/06 13:38:50;;;;;;;;;;;;;;;10.10;78.20;95872.47;5039978;28;20044;-61
2021/05/06 13:41:16;;;;;;;7.20;4.05;;;;;;;10.08;76.84;95881.06;5035130;28;19956;-60
2021/05/06 13:43:42;;;;;;;5.95;2.63;;;;;;;9.85;77.22;95884.06;5038682;28;20453;-58
2021/05/06 13:46:14;;;;;;;4.20;2.50;;;;;;;9.67;79.32;95889.44;5028545;28;20042;-62
2021/05/06 13:48:40;;;;;;;4.50;2.60;;;;;;;9.58;79.71;95888.97;5026756;28;20060;-62
2021/05/06 13:51:09;;;;;;;4.32;2.30;;;;;;;9.65;79.04;95882.75;5028101;28;20453;-67
2021/05/06 13:53:36;;;;;;;8.93;2.50;;;;;;;9.86;78.88;95880.16;5040619;28;20700;-63
2021/05/06 13:56:02;;;;;;;8.88;2.50;;;;;;;9.87;78.04;95884.47;5040055;28;20609;-60
2021/05/06 13:58:27;;;;;;;8.82;3.30;;;;;;;9.82;77.96;95878.59;5028429;28;20488;-60
2021/05/06 14:00:53;;;;;;;7.63;3.25;;;;;;;9.81;78.99;95874.25;5020774;28;20131;-62
2021/05/06 14:03:18;;;;;;;6.68;2.80;;;;;;;9.77;78.86;95869.56;5010809;28;20467;-59
2021/05/06 14:05:44;;;;;;;4.65;2.25;;;;;;;9.81;79.73;95869.56;5020979;28;20041;-60
2021/05/06 14:08:13;;;;;;;9.13;2.53;;;;;;;9.67;78.81;95856.63;5022843;28;20167;-64
2021/05/06 14:10:39;;;;;;;5.25;3.10;;;;;;;9.76;79.82;95857.06;5028704;28;20072;-63
2021/05/06 14:13:04;;;;;;;4.10;2.33;;;;;;;9.63;80.32;95850.31;5014880;28;20528;-61
2021/05/06 14:15:30;;;;;;;7.30;2.20;;;;;;;9.64;79.82;95853.88;5020147;28;20133;-61
2021/05/06 14:17:56;;;;;;;7.10;2.30;;;;;;;9.57;79.64;95857.31;5020361;28;20068;-61
2021/05/06 14:20:22;;;;;;;3.53;2.47;;;;;;;9.49;79.56;95851.03;5021589;28;20041;-60
2021/05/06 14:22:47;;;;;;;6.88;2.50;;;;;;;9.55;79.96;95846.75;5040360;28;20044;-62
2021/05/06 14:25:12;;;;;;;5.68;2.97;;;;;;;9.56;80.15;95844.81;5034907;28;20047;-61
2021/05/06 14:27:38;;;;;;;6.22;2.70;;;;;;;9.32;80.74;95838.00;5048050;28;20048;-62
2021/05/06 14:30:04;;;;;;;5.13;2.92;;;;;;;9.32;79.37;95838.00;5038307;28;20033;-67
2021/05/06 14:32:29;;;;;;;8.38;2.72;;;;;;;8.18;83.48;95819.38;5036249;28;20033;-61
2021/05/06 14:34:55;;;;;;;3.92;2.38;;;;;;;8.09;84.84;95825.13;5038715;28;20090;-58
2021/05/06 14:37:24;;;;;;;5.55;2.55;;;;;;;8.45;84.28;95816.59;5028458;28;20488;-62
2021/05/06 14:39:49;;;;;;;4.72;2.33;;;;;;;8.55;83.59;95802.25;5002260;28;20034;-60
2021/05/06 14:42:14;;;;;;;5.55;2.58;;;;;;;8.01;86.69;95812.53;5014940;28;20060;-59
2021/05/06 14:44:40;;;;;;;7.50;3.20;;;;;;;7.75;88.17;95806.00;5004907;28;20095;-58
2021/05/06 14:47:05;;;;;;;10.32;3.20;;;;;;;7.40;90.17;95800.84;5034636;28;20131;-61
2021/05/06 14:49:31;;;;;;;6.60;3.30;;;;;;;7.06;92.28;95801.53;5048309;28;20060;-61
2021/05/06 14:51:56;;;;;;;8.18;4.60;;;;;;;7.18;93.73;95808.72;5036244;28;20030;-61
2021/05/06 14:54:22;;;;;;;5.35;3.75;;;;;;;7.32;93.23;95819.03;5013440;28;20053;-60
2021/05/06 14:56:47;;;;;;;6.38;3.78;;;;;;;7.14;93.14;95815.25;5021119;28;20038;-56
2021/05/06 14:59:12;;;;;;;8.10;4.00;;;;;;;7.08;93.69;95807.41;5015189;28;20065;-60
2021/05/06 15:01:38;;;;;;;9.98;3.88;;;;;;;7.12;92.97;95810.19;5019998;28;20515;-55
2021/05/06 15:04:04;;;;;;;8.02;3.75;;;;;;;7.37;92.26;95801.59;5026511;28;20045;-66